Airfield :
LOGIN :

Register | Disclaimer

   EN    FR    IT 

 










Legend :    VFR   Marginal VFR   IFR   Intensive IFR   Very Intensive IFR
Visi :
Ceiling :
>= 8 km
>= 3000ft
5 to 8 km
1000 to 3000 ft
1500m to 5 km
500 to 1000 ft
800 to 1500m
200 to 500 ft
< 800m
< 200 ft
Symbols :   Thunderstorms  Fog  Heavy snow  Heavy precipitations  Wind > 20 kt
SIGMETs :     Misc.  Thunderstorms  Icing  Turbulence  Mountain Waves  Volcanic Ashes






- Airport Elevation : 3 ft
- IATA code : DHR


EHKD - Den Helder De Kooy

CURRENT METAR :
  • 181425Z AUTO 28010KT 250V320 9999 BKN035 OVC039 09/02 Q1019 BLU NOSIG

EXPIRED METARs :
  • 181355Z AUTO 29011KT 250V330 9999 OVC037 09/02 Q1020 BLU NOSIG
  • 181325Z AUTO 28010KT 250V320 9999 FEW026 SCT031 OVC036 09/03 Q1020 BLU NOSIG
  • 181255Z AUTO 27009KT 230V330 9999 FEW029 OVC033 09/02 Q1020 BLU NOSIG
  • 181225Z AUTO 29011KT 250V340 9999 FEW033 OVC038 10/02 Q1020 BLU NOSIG
  • 181155Z AUTO 31012KT 270V010 9999 SCT033 SCT037 10/02 Q1020 BLU NOSIG
  • 181125Z AUTO 31010KT 270V360 9999 SCT031 OVC041 10/03 Q1020 BLU NOSIG
  • 181055Z AUTO 31009KT 250V360 9999 BKN028 OVC035 09/03 Q1020 BLU NOSIG
  • 181031Z AUTO 29009KT 260V340 9999 OVC025 09/04 Q1020 BLU NOSIG
  • 181025Z AUTO 31007KT 260V020 9999 BKN023 BKN026 OVC034 09/04 Q1020 REDZ WHT NOSIG
  • 180957Z AUTO 31011KT 270V340 9999 -RA FEW021 BKN036 OVC042 08/05 Q1020 BLU NOSIG
  • 180944Z AUTO 29011KT 260V320 9999 FEW016 SCT022 BKN033 08/04 Q1020 WHT NOSIG

TAF TAF EHKD
Valid from the 18 at 13:00 until the 19 at 01:00 UTC


181233Z 1813/1901 29009KT 9999 SCT035 BKN045
PROB40
TEMPO 1813/1817 29012G22KT
BECMG 1820/1822 25018G30KT 4500 RA SCT018 BKN025
TEMPO 1823/1901 26020G35KT SCT008 BKN012 OVC015



MET'MAP, your aeronautical weather chart ! - Copyright ORBIFLY December 2007 - Disclaimer

ORBIFLY MET'MAP TEAM :

Programming & Development : Alexandra Zaïnal
Original concept : Baudouin d'Aumeries
Technical & hardware support : Manuel Goepfert
Assistance : Marc-Olivier Méhu




SOURCES & CREDITS :

   NOAA